Time;durP1;ratioP1;P1;durP2;ratioP2;P2;SDS_P1;SDS_P2;PMS_P1;PMS_P2;Temp;Humidity;BMP_temperature;BMP_pressure;BME280_temperature;BME280_humidity;BME280_pressure;Samples;Min_cycle;Max_cycle;Signal;HPM_P1;HPM_P2
2023/01/20 00:01:05;;;;;;;4.18;2.35;;;;;;;;;;5063488;28;20125;-88
2023/01/20 00:03:32;;;;;;;2.92;2.20;;;;;;;;;;5051501;28;20041;-87
2023/01/20 00:05:58;;;;;;;2.40;2.20;;;;;;;;;;5034077;28;20389;-90
2023/01/20 00:08:24;;;;;;;3.58;2.00;;;;;;;;;;5033662;28;20132;-88
2023/01/20 00:10:50;;;;;;;2.20;2.00;;;;;;;;;;5033053;28;20128;-88
2023/01/20 00:13:16;;;;;;;2.35;2.15;;;;;;;;;;5028358;28;20037;-88
2023/01/20 00:15:42;;;;;;;2.13;1.95;;;;;;;;;;5037482;28;20056;-88
2023/01/20 00:18:08;;;;;;;2.00;1.77;;;;;;;;;;5030052;28;20493;-89
2023/01/20 00:20:34;;;;;;;2.00;1.83;;;;;;;;;;5030803;28;20045;-88
2023/01/20 00:23:00;;;;;;;2.40;1.80;;;;;;;;;;5033513;28;20491;-88
2023/01/20 00:25:26;;;;;;;2.03;1.80;;;;;;;;;;5031606;28;20049;-87
2023/01/20 00:27:52;;;;;;;2.58;1.98;;;;;;;;;;5022786;28;20047;-88
2023/01/20 00:30:18;;;;;;;3.95;2.00;;;;;;;;;;5024660;28;20049;-87
2023/01/20 00:32:44;;;;;;;4.85;1.83;;;;;;;;;;5028192;28;20041;-88
2023/01/20 00:35:11;;;;;;;3.08;1.80;;;;;;;;;;5026834;28;20656;-89
2023/01/20 00:37:37;;;;;;;3.75;2.10;;;;;;;;;;5029173;28;20053;-88
2023/01/20 00:40:03;;;;;;;5.68;2.10;;;;;;;;;;5029627;28;20057;-87
2023/01/20 00:42:29;;;;;;;2.10;2.00;;;;;;;;;;5059847;28;20068;-88
2023/01/20 00:44:55;;;;;;;2.45;2.00;;;;;;;;;;5029823;28;20045;-88
2023/01/20 00:47:21;;;;;;;3.00;1.98;;;;;;;;;;5028356;28;20077;-87
2023/01/20 00:49:47;;;;;;;3.90;2.33;;;;;;;;;;5064378;28;20500;-88
2023/01/20 00:52:14;;;;;;;2.85;2.08;;;;;;;;;;5024000;28;20132;-88
2023/01/20 00:54:40;;;;;;;3.15;2.20;;;;;;;;;;5061746;28;20045;-89
2023/01/20 00:57:06;;;;;;;6.10;2.20;;;;;;;;;;5061408;28;20045;-88
2023/01/20 00:59:32;;;;;;;4.82;2.17;;;;;;;;;;5029066;28;20532;-89
2023/01/20 01:01:58;;;;;;;5.63;2.33;;;;;;;;;;5009536;28;20493;-89
2023/01/20 01:04:24;;;;;;;2.28;2.08;;;;;;;;;;5031561;28;20038;-89
2023/01/20 01:06:50;;;;;;;2.40;2.20;;;;;;;;;;5034394;28;20073;-89
2023/01/20 01:09:16;;;;;;;5.60;2.20;;;;;;;;;;5058027;28;20045;-88
2023/01/20 01:11:42;;;;;;;2.65;2.45;;;;;;;;;;5028107;28;20045;-89
2023/01/20 01:14:09;;;;;;;4.80;2.20;;;;;;;;;;5024423;28;20090;-90
2023/01/20 01:16:35;;;;;;;3.72;2.63;;;;;;;;;;5056799;28;20911;-88
2023/01/20 01:19:04;;;;;;;3.85;2.30;;;;;;;;;;5028024;28;20045;-88
2023/01/20 01:21:30;;;;;;;3.00;2.08;;;;;;;;;;5026967;28;20041;-88
2023/01/20 01:23:56;;;;;;;2.53;2.33;;;;;;;;;;5064637;28;20389;-88
2023/01/20 01:26:22;;;;;;;2.78;2.30;;;;;;;;;;5026191;28;20438;-88
2023/01/20 01:28:49;;;;;;;7.13;2.38;;;;;;;;;;5059790;28;20041;-89
2023/01/20 01:31:15;;;;;;;3.50;2.47;;;;;;;;;;5030384;28;20029;-88
2023/01/20 01:33:42;;;;;;;2.13;2.00;;;;;;;;;;5064900;28;20509;-88
2023/01/20 01:36:11;;;;;;;3.50;2.70;;;;;;;;;;5028954;28;20452;-89
2023/01/20 01:38:37;;;;;;;4.10;2.60;;;;;;;;;;5026930;28;20152;-88
2023/01/20 01:41:03;;;;;;;3.75;2.50;;;;;;;;;;5026396;28;20204;-88
2023/01/20 01:43:31;;;;;;;5.38;2.75;;;;;;;;;;5025032;28;20056;-88
2023/01/20 01:45:57;;;;;;;5.80;2.80;;;;;;;;;;5022422;28;20058;-88
2023/01/20 01:48:25;;;;;;;3.95;2.80;;;;;;;;;;5024890;28;20470;-88
2023/01/20 01:50:53;;;;;;;4.60;3.30;;;;;;;;;;5031135;28;20446;-88
2023/01/20 01:53:20;;;;;;;5.53;3.30;;;;;;;;;;5021876;28;20053;-88
2023/01/20 01:55:49;;;;;;;4.47;3.35;;;;;;;;;;5044165;28;20037;-89
2023/01/20 01:58:18;;;;;;;5.35;3.38;;;;;;;;;;5027977;28;20045;-89
2023/01/20 02:00:45;;;;;;;3.88;3.42;;;;;;;;;;5022505;28;20157;-88
2023/01/20 02:03:11;;;;;;;4.35;3.70;;;;;;;;;;5030295;28;20077;-89
2023/01/20 02:05:38;;;;;;;4.97;3.55;;;;;;;;;;5027233;28;20038;-89
2023/01/20 02:08:06;;;;;;;5.70;3.53;;;;;;;;;;5061948;28;20051;-88
2023/01/20 02:10:32;;;;;;;5.60;3.63;;;;;;;;;;5031940;28;20045;-87
2023/01/20 02:12:59;;;;;;;3.63;3.33;;;;;;;;;;5062409;28;20041;-88
2023/01/20 02:15:27;;;;;;;4.70;3.72;;;;;;;;;;5032196;28;20176;-88
2023/01/20 02:18:12;;;;;;;8.02;3.92;;;;;;;;;;5028498;28;20037;-88
2023/01/20 02:20:41;;;;;;;7.95;4.60;;;;;;;;;;5035635;28;20053;-88
2023/01/20 02:23:19;;;;;;;7.82;5.47;;;;;;;;;;5031347;28;20057;-88
2023/01/20 02:26:01;;;;;;;7.35;4.38;;;;;;;;;;5030321;28;20060;-88
2023/01/20 02:28:37;;;;;;;5.53;4.53;;;;;;;;;;5060991;28;20057;-88
2023/01/20 02:31:06;;;;;;;6.00;4.82;;;;;;;;;;5029855;28;20085;-88
2023/01/20 02:33:45;;;;;;;8.63;5.25;;;;;;;;;;5026885;28;20046;-87
2023/01/20 02:36:12;;;;;;;6.18;5.18;;;;;;;;;;5039442;28;20508;-87
2023/01/20 02:39:01;;;;;;;9.13;5.60;;;;;;;;;;5028213;28;20523;-88
2023/01/20 02:41:39;;;;;;;9.55;5.88;;;;;;;;;;5040456;28;20397;-88
2023/01/20 02:44:20;;;;;;;6.38;5.15;;;;;;;;;;5053745;28;20049;-89
2023/01/20 02:47:09;;;;;;;9.05;5.32;;;;;;;;;;5050751;28;20120;-87
2023/01/20 02:49:40;;;;;;;6.70;5.03;;;;;;;;;;5034590;28;20057;-87
2023/01/20 02:52:19;;;;;;;7.28;5.20;;;;;;;;;;5032819;28;20555;-87
2023/01/20 02:54:48;;;;;;;8.07;5.30;;;;;;;;;;5049110;28;20055;-87
2023/01/20 02:57:17;;;;;;;9.10;5.63;;;;;;;;;;5042160;28;20046;-88
2023/01/20 02:59:45;;;;;;;6.50;5.35;;;;;;;;;;5032003;28;20098;-87
2023/01/20 03:02:19;;;;;;;5.85;5.05;;;;;;;;;;5043132;28;20056;-88
2023/01/20 03:04:48;;;;;;;6.75;4.97;;;;;;;;;;5037861;28;20044;-88
2023/01/20 03:07:16;;;;;;;7.63;5.30;;;;;;;;;;5076780;23;20552;-88
2023/01/20 03:09:45;;;;;;;10.88;5.63;;;;;;;;;;5013371;28;20045;-88
2023/01/20 03:12:14;;;;;;;8.63;5.60;;;;;;;;;;5012461;28;20490;-89
2023/01/20 03:14:40;;;;;;;7.18;5.03;;;;;;;;;;5011087;28;20045;-87
2023/01/20 03:17:06;;;;;;;8.88;5.45;;;;;;;;;;5012141;28;20049;-87
2023/01/20 03:19:32;;;;;;;8.10;5.30;;;;;;;;;;5040267;28;20041;-86
2023/01/20 03:21:58;;;;;;;8.52;5.75;;;;;;;;;;5050948;28;20057;-86
2023/01/20 03:24:26;;;;;;;9.10;5.93;;;;;;;;;;5016121;28;20038;-87
2023/01/20 03:26:52;;;;;;;8.82;5.65;;;;;;;;;;5002747;28;20046;-87
2023/01/20 03:29:18;;;;;;;8.07;5.63;;;;;;;;;;5018920;28;20045;-87
2023/01/20 03:31:46;;;;;;;8.48;5.97;;;;;;;;;;5015771;28;20095;-87
2023/01/20 03:34:14;;;;;;;10.90;7.03;;;;;;;;;;5015547;28;20049;-87
2023/01/20 03:36:43;;;;;;;10.13;6.70;;;;;;;;;;5028374;28;20038;-88
2023/01/20 03:39:09;;;;;;;10.60;7.50;;;;;;;;;;5031865;28;20053;-89
2023/01/20 03:41:54;;;;;;;10.55;7.68;;;;;;;;;;5014493;28;20052;-88
2023/01/20 03:44:38;;;;;;;15.02;8.93;;;;;;;;;;5010797;28;20072;-88
2023/01/20 03:47:12;;;;;;;13.90;9.07;;;;;;;;;;5012785;28;20053;-87
2023/01/20 03:49:44;;;;;;;16.15;9.95;;;;;;;;;;5008138;28;20082;-87
2023/01/20 03:52:10;;;;;;;14.70;10.75;;;;;;;;;;5010687;28;20436;-88
2023/01/20 03:54:41;;;;;;;15.43;10.75;;;;;;;;;;5010301;28;20694;-87
2023/01/20 03:57:13;;;;;;;14.60;11.23;;;;;;;;;;5007046;28;20421;-87
2023/01/20 03:59:40;;;;;;;16.45;10.40;;;;;;;;;;5009458;28;20046;-88
2023/01/20 04:02:07;;;;;;;15.57;11.13;;;;;;;;;;5007319;28;20132;-88
2023/01/20 04:04:35;;;;;;;16.15;10.90;;;;;;;;;;5011039;28;20049;-88
2023/01/20 04:07:12;;;;;;;14.80;11.10;;;;;;;;;;5008112;28;20434;-89
2023/01/20 04:09:40;;;;;;;16.10;11.50;;;;;;;;;;5009852;28;20046;-89
2023/01/20 04:12:06;;;;;;;17.08;11.65;;;;;;;;;;5008940;28;20049;-88
2023/01/20 04:14:34;;;;;;;18.33;12.02;;;;;;;;;;5022785;28;20047;-87
2023/01/20 04:17:00;;;;;;;17.23;11.93;;;;;;;;;;5008228;28;20045;-88
2023/01/20 04:19:26;;;;;;;19.23;12.02;;;;;;;;;;5011920;28;20041;-88
2023/01/20 04:21:57;;;;;;;17.75;12.13;;;;;;;;;;5009948;28;20046;-88
2023/01/20 04:24:30;;;;;;;16.35;12.15;;;;;;;;;;5010196;28;20049;-89
2023/01/20 04:26:56;;;;;;;17.30;11.77;;;;;;;;;;5011489;28;20117;-89
2023/01/20 04:29:22;;;;;;;17.88;11.95;;;;;;;;;;5008674;28;20053;-89
2023/01/20 04:31:48;;;;;;;20.25;12.77;;;;;;;;;;5003618;28;20057;-88
2023/01/20 04:34:15;;;;;;;16.58;11.77;;;;;;;;;;5010414;28;20374;-88
2023/01/20 04:36:41;;;;;;;18.95;12.93;;;;;;;;;;5007614;28;20057;-88
2023/01/20 04:39:07;;;;;;;18.98;12.50;;;;;;;;;;5016266;28;20037;-89
2023/01/20 04:41:34;;;;;;;19.33;12.32;;;;;;;;;;5016534;28;20081;-89
2023/01/20 04:44:00;;;;;;;21.65;13.50;;;;;;;;;;5015307;28;20038;-87
2023/01/20 04:46:26;;;;;;;18.83;12.93;;;;;;;;;;5003014;28;20072;-89
2023/01/20 04:48:57;;;;;;;18.92;13.43;;;;;;;;;;4997549;28;20045;-87
2023/01/20 04:51:23;;;;;;;17.13;12.48;;;;;;;;;;4983775;28;20064;-87
2023/01/20 04:53:49;;;;;;;17.05;12.07;;;;;;;;;;5011660;28;20576;-90
2023/01/20 04:56:15;;;;;;;15.63;11.35;;;;;;;;;;5016995;28;20050;-89
2023/01/20 04:58:42;;;;;;;16.80;11.55;;;;;;;;;;4995133;28;20038;-88
2023/01/20 05:01:08;;;;;;;18.55;11.40;;;;;;;;;;5002582;28;20050;-89
2023/01/20 05:03:34;;;;;;;15.07;11.15;;;;;;;;;;5010226;28;20132;-89
2023/01/20 05:06:00;;;;;;;15.85;11.07;;;;;;;;;;5004764;28;20133;-90
2023/01/20 05:08:26;;;;;;;15.13;9.68;;;;;;;;;;5009403;28;20108;-88
2023/01/20 05:10:52;;;;;;;14.43;9.73;;;;;;;;;;5011162;28;20050;-88
2023/01/20 05:13:22;;;;;;;12.88;9.10;;;;;;;;;;5011510;28;20453;-88
2023/01/20 05:15:48;;;;;;;16.48;9.80;;;;;;;;;;5000169;28;20136;-89
2023/01/20 05:18:17;;;;;;;14.25;9.38;;;;;;;;;;5008332;28;20189;-88
2023/01/20 05:20:46;;;;;;;15.93;10.65;;;;;;;;;;5011529;28;20092;-89
2023/01/20 05:23:16;;;;;;;14.05;10.88;;;;;;;;;;5010314;28;20375;-89
2023/01/20 05:25:42;;;;;;;18.23;10.50;;;;;;;;;;5006770;28;20041;-88
2023/01/20 05:28:08;;;;;;;17.27;11.48;;;;;;;;;;5013162;28;20048;-90
2023/01/20 05:30:34;;;;;;;18.58;11.98;;;;;;;;;;5000843;28;20037;-89
2023/01/20 05:33:00;;;;;;;20.33;11.98;;;;;;;;;;5005811;28;20174;-88
2023/01/20 05:35:26;;;;;;;15.65;11.50;;;;;;;;;;5011273;28;20050;-89
2023/01/20 05:37:53;;;;;;;18.88;12.35;;;;;;;;;;5007310;28;20042;-89
2023/01/20 05:40:19;;;;;;;20.27;13.88;;;;;;;;;;5007954;28;20042;-89
2023/01/20 05:42:45;;;;;;;24.10;14.32;;;;;;;;;;5009281;28;20121;-89
2023/01/20 05:45:11;;;;;;;22.10;15.15;;;;;;;;;;5004261;28;20521;-88
2023/01/20 05:47:37;;;;;;;26.90;16.05;;;;;;;;;;5007840;28;20099;-88
2023/01/20 05:50:04;;;;;;;26.83;17.60;;;;;;;;;;5006272;28;20121;-89
2023/01/20 05:52:30;;;;;;;27.92;18.40;;;;;;;;;;5009244;28;20073;-89
2023/01/20 05:54:56;;;;;;;29.48;18.90;;;;;;;;;;5007824;28;20443;-92
2023/01/20 05:57:25;;;;;;;33.50;19.40;;;;;;;;;;5014718;28;20125;-90
2023/01/20 05:59:51;;;;;;;32.03;20.60;;;;;;;;;;5010182;28;20484;-90
2023/01/20 06:02:18;;;;;;;33.75;20.27;;;;;;;;;;5009984;28;20046;-89
2023/01/20 06:04:47;;;;;;;32.50;20.48;;;;;;;;;;5013003;28;20041;-91
2023/01/20 06:07:14;;;;;;;35.63;21.33;;;;;;;;;;5006332;28;20200;-91
2023/01/20 06:09:40;;;;;;;35.42;19.88;;;;;;;;;;5011113;28;20053;-90
2023/01/20 06:12:07;;;;;;;36.08;21.92;;;;;;;;;;5011101;28;20046;-87
2023/01/20 06:14:33;;;;;;;33.83;21.10;;;;;;;;;;5009035;28;20061;-90
2023/01/20 06:16:59;;;;;;;37.45;20.75;;;;;;;;;;5006147;28;20050;-91
2023/01/20 06:19:25;;;;;;;37.67;21.60;;;;;;;;;;5010532;28;20065;-90
2023/01/20 06:21:52;;;;;;;38.80;22.65;;;;;;;;;;5009796;28;20038;-88
2023/01/20 06:24:18;;;;;;;37.05;23.30;;;;;;;;;;5039239;28;20395;-89
2023/01/20 06:26:44;;;;;;;42.42;23.40;;;;;;;;;;5004977;28;20139;-91
2023/01/20 06:29:10;;;;;;;39.03;23.50;;;;;;;;;;5008458;28;20080;-90
2023/01/20 06:31:36;;;;;;;40.25;23.83;;;;;;;;;;5011188;28;20050;-91
2023/01/20 06:34:02;;;;;;;41.05;23.40;;;;;;;;;;5015624;28;20041;-89
2023/01/20 06:36:28;;;;;;;44.50;25.02;;;;;;;;;;5014706;28;20050;-92
2023/01/20 06:38:54;;;;;;;44.35;23.42;;;;;;;;;;5029170;28;20037;-89
2023/01/20 06:41:21;;;;;;;41.20;23.10;;;;;;;;;;5031355;28;20061;-89
2023/01/20 06:43:49;;;;;;;44.10;24.20;;;;;;;;;;5022847;28;20121;-86
2023/01/20 06:46:15;;;;;;;43.15;24.40;;;;;;;;;;5012449;28;20101;-89
2023/01/20 06:48:42;;;;;;;42.30;24.77;;;;;;;;;;5024120;28;20049;-89
2023/01/20 06:51:11;;;;;;;42.08;24.08;;;;;;;;;;5016381;28;20076;-86
2023/01/20 06:53:37;;;;;;;43.10;24.63;;;;;;;;;;5001438;28;20120;-89
2023/01/20 06:56:03;;;;;;;45.13;26.08;;;;;;;;;;5005568;28;20048;-89
2023/01/20 06:58:30;;;;;;;45.13;27.90;;;;;;;;;;5015588;28;20053;-90
2023/01/20 07:00:56;;;;;;;41.92;23.67;;;;;;;;;;5018303;28;20045;-89
2023/01/20 07:03:22;;;;;;;42.13;24.52;;;;;;;;;;5013949;28;20049;-91
2023/01/20 07:05:59;;;;;;;45.65;24.20;;;;;;;;;;5018213;28;20054;-91
2023/01/20 07:08:25;;;;;;;41.70;23.83;;;;;;;;;;5009977;28;20096;-93
2023/01/20 07:10:51;;;;;;;37.33;22.75;;;;;;;;;;5007768;28;20042;-91
2023/01/20 07:13:17;;;;;;;35.50;21.75;;;;;;;;;;5011241;28;20049;-90
2023/01/20 07:15:43;;;;;;;40.53;22.33;;;;;;;;;;5013002;28;20119;-90
2023/01/20 07:18:09;;;;;;;36.05;20.83;;;;;;;;;;5009229;28;20371;-89
2023/01/20 07:20:37;;;;;;;33.92;20.33;;;;;;;;;;5014902;28;20462;-89
2023/01/20 07:23:04;;;;;;;32.33;21.27;;;;;;;;;;5045755;28;20050;-89
2023/01/20 07:25:30;;;;;;;33.58;21.08;;;;;;;;;;5011052;28;20108;-90
2023/01/20 07:27:59;;;;;;;32.88;20.23;;;;;;;;;;5013486;28;20050;-89
2023/01/20 07:30:25;;;;;;;36.30;21.02;;;;;;;;;;5015355;28;20092;-89
2023/01/20 07:32:51;;;;;;;34.53;21.42;;;;;;;;;;5008150;28;20038;-89
2023/01/20 07:35:17;;;;;;;32.28;21.85;;;;;;;;;;5013862;28;20046;-89
2023/01/20 07:37:43;;;;;;;35.95;22.58;;;;;;;;;;5015197;28;20046;-90
2023/01/20 07:40:13;;;;;;;38.15;22.95;;;;;;;;;;5010306;28;20046;-89
2023/01/20 07:42:39;;;;;;;37.85;23.23;;;;;;;;;;5013535;28;20093;-89
2023/01/20 07:45:05;;;;;;;37.55;23.10;;;;;;;;;;5013536;28;20514;-89
2023/01/20 07:47:31;;;;;;;39.25;23.00;;;;;;;;;;5014686;28;20498;-88
2023/01/20 07:49:57;;;;;;;37.65;22.38;;;;;;;;;;5014375;28;20064;-89
2023/01/20 07:52:23;;;;;;;35.53;21.52;;;;;;;;;;5010665;28;20604;-88
2023/01/20 07:54:49;;;;;;;37.72;23.70;;;;;;;;;;5009313;28;20049;-87
2023/01/20 07:57:15;;;;;;;38.05;23.55;;;;;;;;;;5011214;28;20042;-89
2023/01/20 07:59:41;;;;;;;33.97;22.67;;;;;;;;;;5013997;28;20119;-88
2023/01/20 08:02:08;;;;;;;36.72;22.45;;;;;;;;;;5007946;28;20065;-93
2023/01/20 08:04:35;;;;;;;35.17;21.50;;;;;;;;;;5014009;28;20060;-92
2023/01/20 08:07:01;;;;;;;38.65;25.27;;;;;;;;;;5007567;28;20516;-91
2023/01/20 08:09:27;;;;;;;46.72;27.27;;;;;;;;;;5016045;28;20107;-91
2023/01/20 08:11:53;;;;;;;44.88;27.02;;;;;;;;;;5012981;28;20088;-92
2023/01/20 08:14:19;;;;;;;48.45;27.73;;;;;;;;;;5007643;28;20448;-92
2023/01/20 08:16:45;;;;;;;43.75;26.70;;;;;;;;;;5028999;28;20121;-91
2023/01/20 08:19:11;;;;;;;48.83;29.67;;;;;;;;;;5020670;28;20132;-92
2023/01/20 08:21:37;;;;;;;51.05;30.10;;;;;;;;;;5009473;28;20109;-92
2023/01/20 08:24:06;;;;;;;50.13;29.50;;;;;;;;;;5040335;28;20123;-92
2023/01/20 08:26:32;;;;;;;51.60;29.63;;;;;;;;;;5020031;28;20050;-91
2023/01/20 08:29:04;;;;;;;46.63;25.98;;;;;;;;;;5014706;28;20038;-92
2023/01/20 08:31:30;;;;;;;46.40;28.15;;;;;;;;;;5015611;28;20445;-92
2023/01/20 08:33:57;;;;;;;51.38;29.25;;;;;;;;;;5014538;28;20531;-92
2023/01/20 08:36:28;;;;;;;51.33;28.95;;;;;;;;;;5008557;28;20457;-92
2023/01/20 08:38:55;;;;;;;51.53;29.23;;;;;;;;;;5013481;28;20054;-91
2023/01/20 08:41:23;;;;;;;54.08;30.10;;;;;;;;;;5009305;28;20076;-92
2023/01/20 08:43:50;;;;;;;53.38;29.30;;;;;;;;;;5011679;28;20115;-91
2023/01/20 08:46:16;;;;;;;56.67;29.60;;;;;;;;;;5021430;28;20064;-90
2023/01/20 08:48:43;;;;;;;49.13;28.20;;;;;;;;;;5029109;28;20100;-91
2023/01/20 08:51:13;;;;;;;55.38;30.15;;;;;;;;;;5010830;28;20053;-91
2023/01/20 08:53:40;;;;;;;54.17;29.73;;;;;;;;;;5008176;28;20105;-91
2023/01/20 08:56:06;;;;;;;54.00;29.70;;;;;;;;;;4997953;28;20081;-92
2023/01/20 08:58:32;;;;;;;52.20;27.42;;;;;;;;;;5012337;28;20477;-91
2023/01/20 09:00:59;;;;;;;53.38;28.77;;;;;;;;;;5013681;28;20069;-92
2023/01/20 09:03:25;;;;;;;58.40;31.27;;;;;;;;;;4995786;28;20049;-93
2023/01/20 09:05:51;;;;;;;63.95;33.33;;;;;;;;;;5010753;28;20121;-90
2023/01/20 09:08:17;;;;;;;60.90;33.58;;;;;;;;;;5008157;28;20077;-93
2023/01/20 09:10:44;;;;;;;61.60;32.05;;;;;;;;;;5012491;28;20038;-92
2023/01/20 09:13:10;;;;;;;57.38;29.73;;;;;;;;;;5012775;28;20100;-93
2023/01/20 09:15:36;;;;;;;64.80;32.47;;;;;;;;;;5011034;28;20042;-92
2023/01/20 09:18:02;;;;;;;58.80;32.33;;;;;;;;;;5013279;28;20486;-91
2023/01/20 09:20:29;;;;;;;57.33;30.95;;;;;;;;;;5009901;28;20049;-91
2023/01/20 09:22:55;;;;;;;63.40;32.92;;;;;;;;;;5011865;28;20042;-93
2023/01/20 09:25:21;;;;;;;55.88;28.40;;;;;;;;;;5009580;28;20073;-92
2023/01/20 09:27:47;;;;;;;56.78;30.35;;;;;;;;;;5023300;28;20069;-92
2023/01/20 09:30:13;;;;;;;59.53;32.00;;;;;;;;;;5014812;28;20045;-91
2023/01/20 09:32:39;;;;;;;62.97;31.95;;;;;;;;;;5014644;28;20485;-91
2023/01/20 09:35:05;;;;;;;60.38;30.88;;;;;;;;;;5010937;28;20073;-90
2023/01/20 09:45:54;;;;;;;61.33;30.52;;;;;;;;;;5008036;28;20050;-90
2023/01/20 09:54:06;;;;;;;54.50;30.42;;;;;;;;;;5009649;28;20054;-91
2023/01/20 09:56:37;;;;;;;62.55;29.20;;;;;;;;;;5021361;28;20030;-87
2023/01/20 09:59:06;;;;;;;60.65;29.95;;;;;;;;;;5038003;28;20018;-90
2023/01/20 10:01:44;;;;;;;60.78;30.38;;;;;;;;;;5038167;28;20051;-90
2023/01/20 10:04:17;;;;;;;58.95;30.05;;;;;;;;;;5011202;28;20129;-91
2023/01/20 10:06:45;;;;;;;57.88;29.75;;;;;;;;;;5010900;28;20058;-90
2023/01/20 10:09:25;;;;;;;58.92;29.48;;;;;;;;;;5032474;28;20056;-90
2023/01/20 10:11:55;;;;;;;59.80;30.52;;;;;;;;;;5010642;28;20112;-90
2023/01/20 10:14:24;;;;;;;61.17;29.50;;;;;;;;;;5009213;28;20050;-90
2023/01/20 10:16:55;;;;;;;58.30;29.98;;;;;;;;;;5010526;28;20366;-91
2023/01/20 10:19:26;;;;;;;57.08;27.25;;;;;;;;;;5011855;28;20055;-90
2023/01/20 10:22:15;;;;;;;60.83;29.02;;;;;;;;;;5010038;28;20072;-89
2023/01/20 10:24:54;;;;;;;58.13;27.23;;;;;;;;;;5002966;28;20492;-90
2023/01/20 10:27:22;;;;;;;63.33;29.27;;;;;;;;;;5025795;28;20042;-89
2023/01/20 10:29:51;;;;;;;59.00;29.73;;;;;;;;;;5016407;28;20049;-91
2023/01/20 10:32:28;;;;;;;59.95;30.50;;;;;;;;;;5015445;28;20042;-90
2023/01/20 10:35:14;;;;;;;63.08;30.63;;;;;;;;;;5021921;28;20042;-90
2023/01/20 10:37:40;;;;;;;67.65;32.83;;;;;;;;;;5000274;28;20038;-91
2023/01/20 10:40:15;;;;;;;57.60;29.38;;;;;;;;;;5013162;28;20056;-90
2023/01/20 10:42:48;;;;;;;56.28;28.23;;;;;;;;;;5021183;28;20057;-91
2023/01/20 10:45:27;;;;;;;54.08;28.15;;;;;;;;;;5013714;28;20057;-90
2023/01/20 10:48:14;;;;;;;60.42;31.02;;;;;;;;;;5012443;28;20168;-89
2023/01/20 10:51:01;;;;;;;61.90;31.15;;;;;;;;;;5012497;28;20053;-91
2023/01/20 10:53:38;;;;;;;59.45;29.42;;;;;;;;;;5012253;28;20068;-91
2023/01/20 10:56:15;;;;;;;58.95;29.88;;;;;;;;;;5013713;28;20477;-90
2023/01/20 10:58:45;;;;;;;63.08;32.40;;;;;;;;;;5014792;28;20046;-90
2023/01/20 11:01:14;;;;;;;67.72;33.13;;;;;;;;;;5013971;28;20507;-91
2023/01/20 11:03:41;;;;;;;66.90;30.40;;;;;;;;;;5010144;28;20104;-90
2023/01/20 11:06:11;;;;;;;65.82;31.42;;;;;;;;;;5013732;28;20058;-90
2023/01/20 11:08:37;;;;;;;63.15;31.83;;;;;;;;;;5019467;28;20084;-92
2023/01/20 11:11:11;;;;;;;58.03;29.85;;;;;;;;;;5014465;28;20060;-89
2023/01/20 11:13:37;;;;;;;;;;;;;;;;;;5026016;28;20076;-89
2023/01/20 11:16:06;;;;;;;61.22;29.13;;;;;;;;;;5018006;28;19921;-91
2023/01/20 11:18:32;;;;;;;58.55;30.05;;;;;;;;;;5042782;28;20120;-90
2023/01/20 11:20:58;;;;;;;60.40;29.65;;;;;;;;;;5011287;28;20045;-91
2023/01/20 11:23:43;;;;;;;64.10;32.95;;;;;;;;;;5015507;28;20050;-90
2023/01/20 11:26:23;;;;;;;60.05;29.77;;;;;;;;;;5009500;28;20402;-91
2023/01/20 11:28:54;;;;;;;58.45;29.80;;;;;;;;;;5011158;28;20486;-92
2023/01/20 11:31:21;;;;;;;61.63;31.20;;;;;;;;;;4996557;28;20064;-91
2023/01/20 11:33:55;;;;;;;55.67;29.02;;;;;;;;;;5008849;28;20065;-90
2023/01/20 11:36:25;;;;;;;59.60;29.15;;;;;;;;;;5012067;28;20040;-87
2023/01/20 11:38:52;;;;;;;54.80;28.13;;;;;;;;;;4999379;28;20107;-89
2023/01/20 11:41:21;;;;;;;53.72;28.60;;;;;;;;;;5009959;28;20034;-89
2023/01/20 11:43:48;;;;;;;55.83;27.55;;;;;;;;;;5004626;28;20098;-89
2023/01/20 11:46:25;;;;;;;58.13;28.50;;;;;;;;;;5008224;28;20048;-89
2023/01/20 11:49:14;;;;;;;53.92;26.65;;;;;;;;;;5011163;28;20053;-89
2023/01/20 11:51:51;;;;;;;53.00;26.70;;;;;;;;;;5006158;28;20072;-89
2023/01/20 11:54:19;;;;;;;57.67;27.17;;;;;;;;;;5008760;28;20491;-92
2023/01/20 11:56:49;;;;;;;51.45;26.23;;;;;;;;;;5016853;28;20389;-86
2023/01/20 11:59:23;;;;;;;52.97;27.02;;;;;;;;;;5017555;28;20041;-84
2023/01/20 12:01:56;;;;;;;51.60;26.92;;;;;;;;;;5013047;28;20065;-83
2023/01/20 12:04:22;;;;;;;53.00;27.20;;;;;;;;;;5010952;28;20053;-87
2023/01/20 12:06:51;;;;;;;51.10;24.98;;;;;;;;;;5010592;28;20509;-87
2023/01/20 12:09:20;;;;;;;47.97;25.10;;;;;;;;;;5008212;28;20049;-87
2023/01/20 12:12:01;;;;;;;52.88;28.50;;;;;;;;;;5008174;28;20050;-88
2023/01/20 12:14:30;;;;;;;51.88;28.25;;;;;;;;;;5011731;28;20056;-87
2023/01/20 12:16:59;;;;;;;53.08;28.33;;;;;;;;;;5009093;28;20061;-88
2023/01/20 12:19:29;;;;;;;50.72;27.70;;;;;;;;;;5011982;28;20049;-87
2023/01/20 12:21:58;;;;;;;50.70;27.35;;;;;;;;;;5026479;28;20401;-87
2023/01/20 12:25:06;;;;;;;45.85;25.38;;;;;;;;;;5020082;28;20049;-87
2023/01/20 12:27:28;;;;;;;47.95;26.92;;;;;;;;;;5012803;28;20050;-86
2023/01/20 12:30:00;;;;;;;48.75;27.77;;;;;;;;;;5011240;28;20164;-87
2023/01/20 12:32:28;;;;;;;47.42;27.40;;;;;;;;;;5012559;28;21389;-87
2023/01/20 12:34:54;;;;;;;53.63;31.95;;;;;;;;;;5007648;28;20042;-86
2023/01/20 12:37:20;;;;;;;43.40;26.60;;;;;;;;;;5006740;28;20134;-88
2023/01/20 12:39:58;;;;;;;52.33;30.35;;;;;;;;;;5010556;28;20140;-88
2023/01/20 12:42:27;;;;;;;48.22;26.75;;;;;;;;;;5015907;28;20141;-88
2023/01/20 12:45:11;;;;;;;44.92;23.00;;;;;;;;;;5017398;28;20050;-87
2023/01/20 12:47:56;;;;;;;44.50;24.63;;;;;;;;;;5012404;28;20116;-87
2023/01/20 12:50:22;;;;;;;42.97;24.35;;;;;;;;;;5009122;28;20045;-88
2023/01/20 12:53:09;;;;;;;46.83;24.95;;;;;;;;;;5019581;28;20038;-88
2023/01/20 12:55:55;;;;;;;44.72;25.17;;;;;;;;;;5011084;28;20034;-87
2023/01/20 12:58:43;;;;;;;46.95;24.20;;;;;;;;;;5010062;28;20442;-88
2023/01/20 13:01:21;;;;;;;45.33;23.30;;;;;;;;;;5012462;28;20044;-88
2023/01/20 13:03:56;;;;;;;43.95;24.50;;;;;;;;;;5004664;28;20128;-88
2023/01/20 13:06:26;;;;;;;43.80;23.75;;;;;;;;;;5005106;28;20082;-87
2023/01/20 13:08:57;;;;;;;43.42;23.83;;;;;;;;;;5004210;28;20486;-88
2023/01/20 13:11:37;;;;;;;53.67;24.85;;;;;;;;;;5042032;28;20050;-87
2023/01/20 13:14:03;;;;;;;47.20;26.08;;;;;;;;;;5010876;28;20030;-88
2023/01/20 13:16:35;;;;;;;52.63;24.98;;;;;;;;;;5029923;28;20045;-88
2023/01/20 13:19:07;;;;;;;49.20;24.95;;;;;;;;;;5031834;28;20049;-88
2023/01/20 13:21:34;;;;;;;47.65;25.42;;;;;;;;;;5024357;28;20069;-88
2023/01/20 13:24:01;;;;;;;48.85;25.88;;;;;;;;;;5013048;28;20509;-88
2023/01/20 13:26:28;;;;;;;49.20;24.20;;;;;;;;;;5015187;28;20042;-88
2023/01/20 13:28:55;;;;;;;47.88;25.45;;;;;;;;;;5011126;28;20405;-88
2023/01/20 13:31:37;;;;;;;54.85;26.92;;;;;;;;;;5011425;28;20046;-87
2023/01/20 13:34:21;;;;;;;50.58;25.25;;;;;;;;;;5011404;28;20037;-88
2023/01/20 13:37:02;;;;;;;51.42;25.30;;;;;;;;;;5010188;28;20053;-88
2023/01/20 13:39:47;;;;;;;51.58;24.67;;;;;;;;;;5006056;28;20054;-87
2023/01/20 13:42:32;;;;;;;47.42;22.33;;;;;;;;;;5012844;28;20489;-88
2023/01/20 13:45:13;;;;;;;51.63;25.88;;;;;;;;;;5003846;28;20393;-87
2023/01/20 13:47:48;;;;;;;49.47;25.67;;;;;;;;;;5010519;28;20103;-88
2023/01/20 13:50:25;;;;;;;46.55;22.75;;;;;;;;;;5006612;28;20065;-88
2023/01/20 13:52:51;;;;;;;47.20;24.17;;;;;;;;;;5005314;28;20096;-88
2023/01/20 13:55:36;;;;;;;48.55;23.38;;;;;;;;;;5009968;28;20049;-88
2023/01/20 13:58:02;;;;;;;49.08;24.42;;;;;;;;;;5010804;28;20048;-88
2023/01/20 14:00:28;;;;;;;46.22;24.33;;;;;;;;;;5012290;28;20614;-87
2023/01/20 14:02:54;;;;;;;49.42;24.45;;;;;;;;;;5020004;28;20095;-88
2023/01/20 14:05:22;;;;;;;43.78;22.08;;;;;;;;;;5016609;28;20073;-88
2023/01/20 14:07:47;;;;;;;49.83;23.67;;;;;;;;;;5013050;28;20046;-88
2023/01/20 14:10:14;;;;;;;50.10;23.95;;;;;;;;;;5011295;28;20068;-88
2023/01/20 14:12:40;;;;;;;39.78;21.08;;;;;;;;;;5011706;28;20501;-88
2023/01/20 14:15:07;;;;;;;44.90;20.95;;;;;;;;;;5026752;28;20046;-88
2023/01/20 14:17:33;;;;;;;42.70;21.77;;;;;;;;;;5013687;28;20555;-88
2023/01/20 14:19:59;;;;;;;41.08;21.90;;;;;;;;;;5012602;28;20038;-88
2023/01/20 14:22:30;;;;;;;43.42;20.63;;;;;;;;;;5012692;28;20054;-88
2023/01/20 14:24:58;;;;;;;40.83;21.75;;;;;;;;;;4997989;28;20045;-88
2023/01/20 14:27:40;;;;;;;41.67;21.08;;;;;;;;;;5011394;28;20048;-87
2023/01/20 14:30:21;;;;;;;38.67;19.23;;;;;;;;;;5011364;28;20129;-88
2023/01/20 14:32:48;;;;;;;42.00;19.63;;;;;;;;;;5021405;28;20045;-88
2023/01/20 14:35:17;;;;;;;39.35;19.02;;;;;;;;;;5015741;28;20490;-89
2023/01/20 14:37:43;;;;;;;35.70;18.42;;;;;;;;;;5035965;28;20521;-87
2023/01/20 14:40:18;;;;;;;35.13;19.48;;;;;;;;;;5016477;28;20073;-88
2023/01/20 14:42:54;;;;;;;41.78;19.52;;;;;;;;;;5010895;28;20049;-88
2023/01/20 14:45:24;;;;;;;38.35;19.73;;;;;;;;;;5012398;28;20052;-88
2023/01/20 14:47:50;;;;;;;40.28;20.05;;;;;;;;;;5016545;28;20030;-88
2023/01/20 14:50:19;;;;;;;37.30;19.63;;;;;;;;;;5013972;28;20041;-88